Time;durP1;ratioP1;P1;durP2;ratioP2;P2;SDS_P1;SDS_P2;PMS_P1;PMS_P2;Temp;Humidity;BMP_temperature;BMP_pressure;BME280_temperature;BME280_humidity;BME280_pressure;Samples;Min_cycle;Max_cycle;Signal;HPM_P1;HPM_P2
2021/10/15 00:00:09;;;;;;;;;;;12.90;99.90;;;;;;5095951;28;19950;-76
2021/10/15 00:02:37;;;;;;;;;;;12.90;99.90;;;;;;5096103;28;19954;-78
2021/10/15 00:05:07;;;;;;;;;;;12.80;99.90;;;;;;5096610;28;19935;-78
2021/10/15 00:07:36;;;;;;;;;;;12.90;99.90;;;;;;5097981;28;19924;-78
2021/10/15 00:10:04;;;;;;;;;;;12.80;99.90;;;;;;5096420;28;19930;-80
2021/10/15 00:12:31;;;;;;;;;;;12.80;99.90;;;;;;5096274;28;19939;-79
2021/10/15 00:14:58;;;;;;;;;;;12.80;99.90;;;;;;5095761;28;19935;-82
2021/10/15 00:17:25;;;;;;;;;;;12.80;99.90;;;;;;5095537;28;19923;-79
2021/10/15 00:19:51;;;;;;;;;;;12.80;99.90;;;;;;5094776;28;19923;-83
2021/10/15 00:22:20;;;;;;;;;;;12.90;99.90;;;;;;5095570;28;19924;-87
2021/10/15 00:24:46;;;;;;;;;;;12.80;99.90;;;;;;5095679;28;19924;-86
2021/10/15 00:27:13;;;;;;;;;;;12.80;99.90;;;;;;5095727;28;19931;-87
2021/10/15 00:29:40;;;;;;;;;;;12.80;99.90;;;;;;5095791;28;19935;-87
2021/10/15 00:32:07;;;;;;;;;;;12.80;99.90;;;;;;5095533;28;19924;-86
2021/10/15 00:34:34;;;;;;;;;;;12.80;99.90;;;;;;5095409;28;19925;-87
2021/10/15 00:37:01;;;;;;;;;;;12.80;99.90;;;;;;5095223;28;19943;-87
2021/10/15 00:39:29;;;;;;;;;;;12.80;99.90;;;;;;5095269;28;19942;-87
2021/10/15 00:41:56;;;;;;;;;;;12.70;99.90;;;;;;5095489;28;19928;-88
2021/10/15 00:44:23;;;;;;;;;;;12.70;99.90;;;;;;5095553;28;20259;-87
2021/10/15 00:46:50;;;;;;;;;;;12.70;99.90;;;;;;5095262;28;19950;-87
2021/10/15 00:49:16;;;;;;;;;;;12.60;99.90;;;;;;5095359;28;19924;-87
2021/10/15 00:51:44;;;;;;;;;;;12.60;99.90;;;;;;5095104;28;20336;-87
2021/10/15 00:54:11;;;;;;;;;;;12.50;99.90;;;;;;5095421;28;20247;-87
2021/10/15 00:56:39;;;;;;;;;;;12.50;99.90;;;;;;5095406;28;19928;-87
2021/10/15 00:59:06;;;;;;;;;;;12.50;99.90;;;;;;5095173;28;20359;-87
2021/10/15 01:01:33;;;;;;;;;;;12.50;99.90;;;;;;5095098;28;19930;-87
2021/10/15 01:04:00;;;;;;;;;;;12.50;99.90;;;;;;5095501;28;19931;-87
2021/10/15 01:06:27;;;;;;;;;;;12.40;99.90;;;;;;5095288;28;19924;-87
2021/10/15 01:08:54;;;;;;;;;;;12.40;99.90;;;;;;5095402;28;19924;-87
2021/10/15 01:11:20;;;;;;;;;;;12.40;99.90;;;;;;5094915;28;19930;-87
2021/10/15 01:13:49;;;;;;;;;;;12.40;99.90;;;;;;5094961;28;19931;-87
2021/10/15 01:16:16;;;;;;;;;;;12.40;99.90;;;;;;5094911;28;19924;-87
2021/10/15 01:18:43;;;;;;;;;;;12.40;99.90;;;;;;5095076;28;19935;-85
2021/10/15 01:21:11;;;;;;;;;;;12.30;99.90;;;;;;5094924;28;20336;-85
2021/10/15 01:23:38;;;;;;;;;;;12.30;99.90;;;;;;5094910;28;19950;-86
2021/10/15 01:26:05;;;;;;;;;;;12.40;99.90;;;;;;5095084;28;19924;-86
2021/10/15 01:28:32;;;;;;;;;;;12.30;99.90;;;;;;5094860;28;19928;-86
2021/10/15 01:30:59;;;;;;;;;;;12.30;99.90;;;;;;5094749;28;19925;-85
2021/10/15 01:33:26;;;;;;;;;;;12.30;99.90;;;;;;5097261;28;19923;-86
2021/10/15 01:35:53;;;;;;;;;;;12.30;99.90;;;;;;5098566;28;19936;-86
2021/10/15 01:38:21;;;;;;;;;;;12.30;99.90;;;;;;5098442;28;20354;-85
2021/10/15 01:40:48;;;;;;;;;;;12.20;99.90;;;;;;5098618;28;19924;-85
2021/10/15 01:43:18;;;;;;;;;;;12.20;99.90;;;;;;5098524;28;19942;-85
2021/10/15 01:45:45;;;;;;;;;;;12.10;99.90;;;;;;5098798;28;19924;-85
2021/10/15 01:48:12;;;;;;;;;;;12.00;99.90;;;;;;5098462;28;19924;-85
2021/10/15 01:50:38;;;;;;;;;;;12.10;99.90;;;;;;5098519;28;19924;-85
2021/10/15 01:53:05;;;;;;;;;;;12.00;99.90;;;;;;5098541;28;19924;-85
2021/10/15 01:55:34;;;;;;;;;;;12.00;99.90;;;;;;5098359;28;19939;-84
2021/10/15 01:58:00;;;;;;;;;;;11.90;99.90;;;;;;5098212;28;20259;-84
2021/10/15 02:00:27;;;;;;;;;;;11.90;99.90;;;;;;5098246;28;19924;-83
2021/10/15 02:02:54;;;;;;;;;;;11.90;99.90;;;;;;5098160;28;19931;-84
2021/10/15 02:05:21;;;;;;;;;;;11.90;99.90;;;;;;5099726;28;19924;-79
2021/10/15 02:07:48;;;;;;;;;;;11.90;99.90;;;;;;5104232;28;19924;-84
2021/10/15 02:10:15;;;;;;;;;;;11.90;99.90;;;;;;5100010;28;19930;-83
2021/10/15 02:12:43;;;;;;;;;;;11.90;99.90;;;;;;5104003;28;19924;-83
2021/10/15 02:15:11;;;;;;;;;;;11.90;99.90;;;;;;5103134;28;19973;-84
2021/10/15 02:17:38;;;;;;;;;;;11.90;99.90;;;;;;5097898;28;19924;-85
2021/10/15 02:20:05;;;;;;;;;;;11.90;99.90;;;;;;5097763;28;19935;-86
2021/10/15 02:22:33;;;;;;;;;;;11.90;99.90;;;;;;5097847;28;19928;-83
2021/10/15 02:25:00;;;;;;;;;;;11.90;99.90;;;;;;5097972;28;20263;-83
2021/10/15 02:27:29;;;;;;;;;;;11.90;99.90;;;;;;5097728;28;19924;-82
2021/10/15 02:30:04;;;;;;;;;;;11.90;99.90;;;;;;5097693;28;19935;-80
2021/10/15 02:32:32;;;;;;;;;;;11.90;99.90;;;;;;5097329;28;20400;-82
2021/10/15 02:34:59;;;;;;;;;;;11.90;99.90;;;;;;5097596;28;19924;-80
2021/10/15 02:37:26;;;;;;;;;;;11.90;99.90;;;;;;5097172;28;19924;-82
2021/10/15 02:39:56;;;;;;;;;;;11.90;99.90;;;;;;5097523;28;20005;-83
2021/10/15 02:42:24;;;;;;;;;;;11.90;99.90;;;;;;5097745;28;19935;-83
2021/10/15 02:44:53;;;;;;;;;;;11.90;99.90;;;;;;5097142;28;19930;-83
2021/10/15 02:47:23;;;;;;;;;;;11.90;99.90;;;;;;5097725;28;20264;-82
2021/10/15 02:49:50;;;;;;;;;;;11.90;99.90;;;;;;5097436;28;19978;-80
2021/10/15 02:52:20;;;;;;;;;;;11.90;99.90;;;;;;5097342;28;19977;-80
2021/10/15 02:54:48;;;;;;;;;;;11.80;99.90;;;;;;5097192;28;19924;-82
2021/10/15 02:57:16;;;;;;;;;;;11.80;99.90;;;;;;5096996;28;19924;-80
2021/10/15 02:59:46;;;;;;;;;;;11.80;99.90;;;;;;5096781;28;19950;-80
2021/10/15 03:02:14;;;;;;;;;;;11.80;99.90;;;;;;5079640;28;19928;-82
2021/10/15 03:04:49;;;;;;;;;;;11.70;99.90;;;;;;5097038;28;19924;-82
2021/10/15 03:07:17;;;;;;;;;;;11.70;99.90;;;;;;5096595;28;20015;-81
2021/10/15 03:09:48;;;;;;;;;;;11.60;99.90;;;;;;5096820;28;19924;-78
2021/10/15 03:12:16;;;;;;;;;;;11.50;99.90;;;;;;5097068;28;19934;-77
2021/10/15 03:14:44;;;;;;;;;;;11.40;99.90;;;;;;5096760;28;19989;-76
2021/10/15 03:17:12;;;;;;;;;;;11.40;99.90;;;;;;5096526;28;20272;-76
2021/10/15 03:19:40;;;;;;;;;;;11.40;99.90;;;;;;5096649;28;19924;-76
2021/10/15 03:22:09;;;;;;;;;;;11.30;99.90;;;;;;5096721;28;19924;-76
2021/10/15 03:24:35;;;;;;;;;;;11.30;99.90;;;;;;5096620;28;20095;-75
2021/10/15 03:27:02;;;;;;;;;;;11.30;99.90;;;;;;5096666;28;19924;-76
2021/10/15 03:29:29;;;;;;;;;;;11.30;99.90;;;;;;5096719;28;19924;-76
2021/10/15 03:31:56;;;;;;;;;;;11.30;99.90;;;;;;5096673;28;19946;-75
2021/10/15 03:34:23;;;;;;;;;;;11.20;99.90;;;;;;5096507;28;20347;-76
2021/10/15 03:36:50;;;;;;;;;;;11.10;99.90;;;;;;5096277;28;19924;-76
2021/10/15 03:39:18;;;;;;;;;;;11.10;99.90;;;;;;5096103;28;19924;-77
2021/10/15 03:41:45;;;;;;;;;;;11.00;99.90;;;;;;5096200;28;20248;-76
2021/10/15 03:44:11;;;;;;;;;;;11.00;99.90;;;;;;5096206;28;19924;-76
2021/10/15 03:46:38;;;;;;;;;;;11.00;99.90;;;;;;5095613;28;20336;-75
2021/10/15 03:49:05;;;;;;;;;;;11.00;99.90;;;;;;5096167;28;19924;-76
2021/10/15 03:51:32;;;;;;;;;;;10.90;99.90;;;;;;5096050;28;19936;-75
2021/10/15 03:53:59;;;;;;;;;;;10.90;99.90;;;;;;5095998;28;19924;-75
2021/10/15 03:56:27;;;;;;;;;;;10.90;99.90;;;;;;5095381;28;20352;-75
2021/10/15 03:58:54;;;;;;;;;;;10.80;99.90;;;;;;5096075;28;19928;-75
2021/10/15 04:01:21;;;;;;;;;;;10.70;99.90;;;;;;5096003;28;20283;-75
2021/10/15 04:03:47;;;;;;;;;;;10.70;99.90;;;;;;5095842;28;19924;-75
2021/10/15 04:06:14;;;;;;;;;;;10.60;99.90;;;;;;5095804;28;19924;-75
2021/10/15 04:08:41;;;;;;;;;;;10.50;99.90;;;;;;5096008;28;19935;-75
2021/10/15 04:11:08;;;;;;;;;;;10.50;99.90;;;;;;5095726;28;20376;-75
2021/10/15 04:13:36;;;;;;;;;;;10.40;99.90;;;;;;5095680;28;19931;-75
2021/10/15 04:16:04;;;;;;;;;;;10.40;99.90;;;;;;5095626;28;19924;-75
2021/10/15 04:18:30;;;;;;;;;;;10.30;99.90;;;;;;5095871;28;19935;-75
2021/10/15 04:20:57;;;;;;;;;;;10.30;99.90;;;;;;5095687;28;19935;-75
2021/10/15 04:23:24;;;;;;;;;;;10.30;99.90;;;;;;5095767;28;19934;-75
2021/10/15 04:25:51;;;;;;;;;;;10.20;99.90;;;;;;5095470;28;20489;-75
2021/10/15 04:28:18;;;;;;;;;;;10.20;99.90;;;;;;5095454;28;19943;-75
2021/10/15 04:30:47;;;;;;;;;;;10.10;99.90;;;;;;5095390;28;20366;-75
2021/10/15 04:33:14;;;;;;;;;;;10.10;99.90;;;;;;5095363;28;19928;-75
2021/10/15 04:35:40;;;;;;;;;;;10.00;99.90;;;;;;5095400;28;20399;-75
2021/10/15 04:38:07;;;;;;;;;;;10.00;99.90;;;;;;5095220;28;19924;-75
2021/10/15 04:40:34;;;;;;;;;;;10.00;99.90;;;;;;5095322;28;19928;-75
2021/10/15 04:43:01;;;;;;;;;;;10.00;99.90;;;;;;5095450;28;19927;-75
2021/10/15 04:45:28;;;;;;;;;;;9.90;99.90;;;;;;5095226;28;20402;-75
2021/10/15 04:47:56;;;;;;;;;;;9.90;99.90;;;;;;5095058;28;20358;-75
2021/10/15 04:50:23;;;;;;;;;;;9.90;99.90;;;;;;5095139;28;19930;-75
2021/10/15 04:52:50;;;;;;;;;;;9.90;99.90;;;;;;5095362;28;19924;-75
2021/10/15 04:55:16;;;;;;;;;;;9.80;99.90;;;;;;5095181;28;20242;-75
2021/10/15 04:57:43;;;;;;;;;;;9.70;99.90;;;;;;5095047;28;19928;-75
2021/10/15 05:00:11;;;;;;;;;;;9.70;99.90;;;;;;5095220;28;19924;-75
2021/10/15 05:02:38;;;;;;;;;;;9.60;99.90;;;;;;5095052;28;19935;-75
2021/10/15 05:05:07;;;;;;;;;;;9.60;99.90;;;;;;5094964;28;19928;-75
2021/10/15 05:07:34;;;;;;;;;;;9.50;99.90;;;;;;5096440;28;19927;-75
2021/10/15 05:10:01;;;;;;;;;;;9.60;99.90;;;;;;5099459;28;19939;-74
2021/10/15 05:12:28;;;;;;;;;;;9.50;99.90;;;;;;5099310;28;20348;-75
2021/10/15 05:14:55;;;;;;;;;;;9.50;99.90;;;;;;5099089;28;19935;-75
2021/10/15 05:17:21;;;;;;;;;;;9.50;99.90;;;;;;5099188;28;19935;-75
2021/10/15 05:19:48;;;;;;;;;;;9.50;99.90;;;;;;5099043;28;19934;-75
2021/10/15 05:22:16;;;;;;;;;;;9.40;99.90;;;;;;5099204;28;19934;-75
2021/10/15 05:24:43;;;;;;;;;;;9.40;99.90;;;;;;5098993;28;19927;-75
2021/10/15 05:27:10;;;;;;;;;;;9.40;99.90;;;;;;5099184;28;19935;-75
2021/10/15 05:29:37;;;;;;;;;;;9.40;99.90;;;;;;5099064;28;19924;-75
2021/10/15 05:32:04;;;;;;;;;;;9.40;99.90;;;;;;5098865;28;20382;-75
2021/10/15 05:34:31;;;;;;;;;;;9.30;99.90;;;;;;5098948;28;19928;-75
2021/10/15 05:36:58;;;;;;;;;;;9.30;99.90;;;;;;5098553;28;19931;-75
2021/10/15 05:39:26;;;;;;;;;;;9.30;99.90;;;;;;5098962;28;19934;-75
2021/10/15 05:41:53;;;;;;;;;;;9.30;99.90;;;;;;5098654;28;19965;-74
2021/10/15 05:44:20;;;;;;;;;;;9.30;99.90;;;;;;5098782;28;19934;-75
2021/10/15 05:46:47;;;;;;;;;;;9.20;99.90;;;;;;5098514;28;19982;-75
2021/10/15 05:49:13;;;;;;;;;;;9.20;99.90;;;;;;5098408;28;20383;-75
2021/10/15 05:51:43;;;;;;;;;;;9.20;99.90;;;;;;5098578;28;19924;-75
2021/10/15 05:54:14;;;;;;;;;;;9.10;99.90;;;;;;5098589;28;19924;-75
2021/10/15 05:56:56;;;;;;;;;;;9.10;99.90;;;;;;5098519;28;20022;-75
2021/10/15 05:59:22;;;;;;;;;;;9.00;99.90;;;;;;5098305;28;19932;-75
2021/10/15 06:01:50;;;;;;;;;;;9.00;99.90;;;;;;5098577;28;19920;-75
2021/10/15 06:15:27;;;;;;;;;;;8.90;99.90;;;;;;5036515;28;19989;-74
2021/10/15 06:17:54;;;;;;;;;;;8.80;99.90;;;;;;5035405;28;19929;-75
2021/10/15 06:20:21;;;;;;;;;;;8.80;99.90;;;;;;5036097;28;20028;-75
2021/10/15 06:22:48;;;;;;;;;;;8.70;99.90;;;;;;5036041;28;19996;-75
2021/10/15 06:25:15;;;;;;;;;;;8.70;99.90;;;;;;5036080;28;19935;-75
2021/10/15 06:27:43;;;;;;;;;;;8.70;99.90;;;;;;5036122;28;19951;-75
2021/10/15 06:30:10;;;;;;;;;;;8.70;99.90;;;;;;5035968;28;19936;-75
2021/10/15 06:32:37;;;;;;;;;;;8.60;99.90;;;;;;5035823;28;19925;-75
2021/10/15 06:35:04;;;;;;;;;;;8.60;99.90;;;;;;5035860;28;19925;-75
2021/10/15 06:37:31;;;;;;;;;;;8.60;99.90;;;;;;5035526;28;20466;-75
2021/10/15 06:39:57;;;;;;;;;;;8.60;99.90;;;;;;5035865;28;19925;-75
2021/10/15 06:42:24;;;;;;;;;;;8.60;99.90;;;;;;5035747;28;19925;-75
2021/10/15 06:44:53;;;;;;;;;;;8.60;99.90;;;;;;5096805;28;19924;-75
2021/10/15 06:47:20;;;;;;;;;;;8.60;99.90;;;;;;5097508;28;19947;-75
2021/10/15 06:49:47;;;;;;;;;;;8.50;99.90;;;;;;5097812;28;19935;-74
2021/10/15 06:52:14;;;;;;;;;;;8.50;99.90;;;;;;5097495;28;19938;-74
2021/10/15 06:54:40;;;;;;;;;;;8.50;99.90;;;;;;5097201;28;19924;-75
2021/10/15 06:57:07;;;;;;;;;;;8.50;99.90;;;;;;5097107;28;20379;-75
2021/10/15 06:59:34;;;;;;;;;;;8.50;99.90;;;;;;5097063;28;19934;-75
2021/10/15 07:02:03;;;;;;;;;;;8.40;99.90;;;;;;5097305;28;20284;-75
2021/10/15 07:04:30;;;;;;;;;;;8.40;99.90;;;;;;5097735;28;19924;-74
2021/10/15 07:06:56;;;;;;;;;;;8.40;99.90;;;;;;5097195;28;19934;-75
2021/10/15 07:09:23;;;;;;;;;;;8.40;99.90;;;;;;5097469;28;20268;-74
2021/10/15 07:11:50;;;;;;;;;;;8.40;99.90;;;;;;5096835;28;19931;-75
2021/10/15 07:14:17;;;;;;;;;;;8.50;99.90;;;;;;5096994;28;19924;-75
2021/10/15 07:16:44;;;;;;;;;;;8.40;99.90;;;;;;5096676;28;20262;-75
2021/10/15 07:19:12;;;;;;;;;;;8.40;99.90;;;;;;5096833;28;19935;-75
2021/10/15 07:21:39;;;;;;;;;;;8.40;99.90;;;;;;5096958;28;19924;-74
2021/10/15 07:24:06;;;;;;;;;;;8.40;99.90;;;;;;5096894;28;19924;-75
2021/10/15 07:26:36;;;;;;;;;;;8.40;99.90;;;;;;5096596;28;20348;-75
2021/10/15 07:29:03;;;;;;;;;;;8.30;99.90;;;;;;5096424;28;20342;-75
2021/10/15 07:31:30;;;;;;;;;;;8.30;99.90;;;;;;5095603;28;20362;-75
2021/10/15 07:33:57;;;;;;;;;;;8.30;99.90;;;;;;5096490;28;19924;-75
2021/10/15 07:36:25;;;;;;;;;;;8.30;99.90;;;;;;5096675;28;19935;-75
2021/10/15 07:38:52;;;;;;;;;;;8.30;99.90;;;;;;5096327;28;19924;-75
2021/10/15 07:41:19;;;;;;;;;;;8.30;99.90;;;;;;5096360;28;19924;-75
2021/10/15 07:43:47;;;;;;;;;;;8.30;99.90;;;;;;5096244;28;20249;-75
2021/10/15 07:46:14;;;;;;;;;;;8.40;99.90;;;;;;5096119;28;19924;-74
2021/10/15 07:48:40;;;;;;;;;;;8.40;99.90;;;;;;5096228;28;19924;-75
2021/10/15 07:51:08;;;;;;;;;;;8.40;99.90;;;;;;5096424;28;19934;-75
2021/10/15 07:53:36;;;;;;;;;;;8.50;99.90;;;;;;5096308;28;19967;-75
2021/10/15 07:56:03;;;;;;;;;;;8.50;99.90;;;;;;5096251;28;19931;-75
2021/10/15 07:58:30;;;;;;;;;;;8.60;99.90;;;;;;5095869;28;19946;-75
2021/10/15 08:00:57;;;;;;;;;;;8.60;99.90;;;;;;5096127;28;19950;-75
2021/10/15 08:03:23;;;;;;;;;;;8.60;99.90;;;;;;5095985;28;20371;-74
2021/10/15 08:05:50;;;;;;;;;;;8.60;99.90;;;;;;5095882;28;20364;-75
2021/10/15 08:08:17;;;;;;;;;;;8.70;99.90;;;;;;5095892;28;19924;-75
2021/10/15 08:10:45;;;;;;;;;;;8.70;99.90;;;;;;5096134;28;19924;-74
2021/10/15 08:13:13;;;;;;;;;;;8.70;99.90;;;;;;5095787;28;20259;-75
2021/10/15 08:15:40;;;;;;;;;;;8.80;99.90;;;;;;5095731;28;19930;-75
2021/10/15 08:18:07;;;;;;;;;;;8.80;99.90;;;;;;5095818;28;19931;-75
2021/10/15 08:20:34;;;;;;;;;;;8.80;99.90;;;;;;5095558;28;19924;-75
2021/10/15 08:23:01;;;;;;;;;;;8.80;99.90;;;;;;5095537;28;19924;-74
2021/10/15 08:25:27;;;;;;;;;;;8.90;99.90;;;;;;5095775;28;19924;-75
2021/10/15 08:27:56;;;;;;;;;;;8.90;99.90;;;;;;5095466;28;19935;-75
2021/10/15 08:30:23;;;;;;;;;;;8.90;99.90;;;;;;5095694;28;19947;-75
2021/10/15 08:32:50;;;;;;;;;;;8.90;99.90;;;;;;5095385;28;19935;-75
2021/10/15 08:35:16;;;;;;;;;;;9.00;99.90;;;;;;5095407;28;19934;-74
2021/10/15 08:37:43;;;;;;;;;;;9.00;99.90;;;;;;5095183;28;19924;-75
2021/10/15 08:40:10;;;;;;;;;;;9.00;99.90;;;;;;5095421;28;20237;-74
2021/10/15 08:42:37;;;;;;;;;;;9.10;99.90;;;;;;5095086;28;19924;-75
2021/10/15 08:45:06;;;;;;;;;;;9.10;99.90;;;;;;5095453;28;20260;-75
2021/10/15 08:47:33;;;;;;;;;;;9.10;99.90;;;;;;5095336;28;19924;-74
2021/10/15 08:50:00;;;;;;;;;;;9.10;99.90;;;;;;5095300;28;19928;-75
2021/10/15 08:52:27;;;;;;;;;;;9.20;99.90;;;;;;5095257;28;20260;-75
2021/10/15 08:54:54;;;;;;;;;;;9.30;99.90;;;;;;5095098;28;19924;-75
2021/10/15 08:57:21;;;;;;;;;;;9.20;99.90;;;;;;5095095;28;19935;-74
2021/10/15 08:59:48;;;;;;;;;;;9.30;99.90;;;;;;5095339;28;19978;-74
2021/10/15 09:02:17;;;;;;;;;;;9.30;99.90;;;;;;5095188;28;19924;-75
2021/10/15 09:04:44;;;;;;;;;;;9.40;99.90;;;;;;5094976;28;20264;-74
2021/10/15 09:07:12;;;;;;;;;;;9.40;99.90;;;;;;5095100;28;19923;-74
2021/10/15 09:09:38;;;;;;;;;;;9.40;99.90;;;;;;5095103;28;19925;-74
2021/10/15 09:12:09;;;;;;;;;;;9.50;99.90;;;;;;5095240;28;19934;-75
2021/10/15 09:14:37;;;;;;;;;;;9.50;99.90;;;;;;5095044;28;19928;-75
2021/10/15 09:17:05;;;;;;;;;;;9.50;99.90;;;;;;5095279;28;19959;-75
2021/10/15 09:19:34;;;;;;;;;;;9.50;99.90;;;;;;5095004;28;19923;-74
2021/10/15 09:22:04;;;;;;;;;;;9.60;99.90;;;;;;5094873;28;20382;-74
2021/10/15 09:24:36;;;;;;;;;;;9.60;99.90;;;;;;5095089;28;19928;-74
2021/10/15 09:27:10;;;;;;;;;;;9.60;99.90;;;;;;5095079;28;20011;-74
2021/10/15 09:29:40;;;;;;;;;;;9.70;99.90;;;;;;5095134;28;19932;-74
2021/10/15 09:32:07;;;;;;;;;;;9.70;99.90;;;;;;5095070;28;19928;-74
2021/10/15 09:34:36;;;;;;;;;;;9.70;99.90;;;;;;5094730;28;19924;-74
2021/10/15 09:37:03;;;;;;;;;;;9.70;99.90;;;;;;5094673;28;19924;-74
2021/10/15 09:39:30;;;;;;;;;;;9.70;99.90;;;;;;5094757;28;19924;-74
2021/10/15 09:41:57;;;;;;;;;;;9.80;99.90;;;;;;5094816;28;19978;-75
2021/10/15 09:44:31;;;;;;;;;;;9.80;99.90;;;;;;5094647;28;20249;-75
2021/10/15 09:47:14;;;;;;;;;;;9.80;99.90;;;;;;5094864;28;19936;-75
2021/10/15 09:49:49;;;;;;;;;;;9.90;99.90;;;;;;5094756;28;20415;-75
2021/10/15 09:52:22;;;;;;;;;;;9.90;99.90;;;;;;5094641;28;19935;-75
2021/10/15 09:54:54;;;;;;;;;;;9.90;99.90;;;;;;5097746;28;20252;-75
2021/10/15 09:57:27;;;;;;;;;;;9.90;99.90;;;;;;5098313;28;19924;-75
2021/10/15 09:59:54;;;;;;;;;;;10.00;99.90;;;;;;5098286;28;19924;-75
2021/10/15 10:02:21;;;;;;;;;;;10.00;99.90;;;;;;5098514;28;19924;-75
2021/10/15 10:04:49;;;;;;;;;;;10.10;99.90;;;;;;5098354;28;20348;-75
2021/10/15 10:07:16;;;;;;;;;;;10.10;99.90;;;;;;5098218;28;19924;-75
2021/10/15 10:09:43;;;;;;;;;;;10.10;99.90;;;;;;5098120;28;19935;-75
2021/10/15 10:12:09;;;;;;;;;;;10.10;99.90;;;;;;5098064;28;19935;-75
2021/10/15 10:14:36;;;;;;;;;;;10.10;99.90;;;;;;5098026;28;19934;-75
2021/10/15 10:17:03;;;;;;;;;;;10.20;99.90;;;;;;5098078;28;19935;-75
2021/10/15 10:19:30;;;;;;;;;;;10.20;99.90;;;;;;5097998;28;19924;-75
2021/10/15 10:21:58;;;;;;;;;;;10.20;99.90;;;;;;5098002;28;20390;-75
2021/10/15 10:24:26;;;;;;;;;;;10.20;99.90;;;;;;5097757;28;19924;-75
2021/10/15 10:26:55;;;;;;;;;;;10.20;99.90;;;;;;5097693;28;19924;-75
2021/10/15 10:29:22;;;;;;;;;;;10.30;99.90;;;;;;5097924;28;19932;-75
2021/10/15 10:31:51;;;;;;;;;;;10.30;99.90;;;;;;5097858;28;19932;-75
2021/10/15 10:34:22;;;;;;;;;;;10.30;99.90;;;;;;5097683;28;19993;-75
2021/10/15 10:37:01;;;;;;;;;;;10.30;99.90;;;;;;5097615;28;19924;-75
2021/10/15 10:39:29;;;;;;;;;;;10.30;99.90;;;;;;5097375;28;19935;-75
2021/10/15 10:42:02;;;;;;;;;;;10.30;99.90;;;;;;5097709;28;20334;-75
2021/10/15 10:44:29;;;;;;;;;;;10.40;99.90;;;;;;5097356;28;19924;-75
2021/10/15 10:47:14;;;;;;;;;;;10.40;99.90;;;;;;5097603;28;19924;-75
2021/10/15 10:49:42;;;;;;;;;;;10.40;99.90;;;;;;5097251;28;19934;-75
2021/10/15 10:52:20;;;;;;;;;;;10.50;99.90;;;;;;5097290;28;19923;-75
2021/10/15 10:54:48;;;;;;;;;;;10.50;99.90;;;;;;5097357;28;19938;-76
2021/10/15 10:57:16;;;;;;;;;;;10.60;99.90;;;;;;5097016;28;19924;-75
2021/10/15 10:59:44;;;;;;;;;;;10.60;99.90;;;;;;5097426;28;19924;-75
2021/10/15 11:02:16;;;;;;;;;;;10.60;99.90;;;;;;5097211;28;19924;-75
2021/10/15 11:04:54;;;;;;;;;;;10.60;99.90;;;;;;5096977;28;20264;-75
2021/10/15 11:07:27;;;;;;;;;;;10.70;99.90;;;;;;5096950;28;19998;-75
2021/10/15 11:09:54;;;;;;;;;;;10.70;99.90;;;;;;5096895;28;19924;-75
2021/10/15 11:12:25;;;;;;;;;;;10.70;99.90;;;;;;5097067;28;19924;-76
2021/10/15 11:14:54;;;;;;;;;;;10.80;99.90;;;;;;5096800;28;19950;-76
2021/10/15 11:17:26;;;;;;;;;;;10.90;99.90;;;;;;5096741;28;19989;-75
2021/10/15 11:20:12;;;;;;;;;;;10.90;99.90;;;;;;5096792;28;20263;-75
2021/10/15 11:22:44;;;;;;;;;;;11.10;99.90;;;;;;5096716;28;19928;-75
2021/10/15 11:25:12;;;;;;;;;;;11.10;99.90;;;;;;5096828;28;20442;-75
2021/10/15 11:27:40;;;;;;;;;;;11.20;99.90;;;;;;5096582;28;19924;-75
2021/10/15 11:30:09;;;;;;;;;;;11.20;99.90;;;;;;5096778;28;19924;-75
2021/10/15 11:32:38;;;;;;;;;;;11.20;99.90;;;;;;5096613;28;19931;-75
2021/10/15 11:35:07;;;;;;;;;;;11.20;99.90;;;;;;5096673;28;19975;-75
2021/10/15 11:37:50;;;;;;;;;;;11.20;99.90;;;;;;5096108;28;19923;-75
2021/10/15 11:40:22;;;;;;;;;;;11.10;99.90;;;;;;5093727;28;20398;-75
2021/10/15 11:42:49;;;;;;;;;;;11.10;99.90;;;;;;5096457;28;19934;-75
2021/10/15 11:45:35;;;;;;;;;;;11.10;99.90;;;;;;5096450;28;19924;-75
2021/10/15 11:48:04;;;;;;;;;;;11.10;99.90;;;;;;5096541;28;20030;-76
2021/10/15 11:50:35;;;;;;;;;;;11.10;99.90;;;;;;5096302;28;19963;-75
2021/10/15 11:53:04;;;;;;;;;;;11.10;99.90;;;;;;5096349;28;19935;-76
2021/10/15 11:55:44;;;;;;;;;;;11.10;99.90;;;;;;5096225;28;19946;-75
2021/10/15 11:58:27;;;;;;;;;;;11.00;99.90;;;;;;5096057;28;19934;-76
2021/10/15 12:00:59;;;;;;;;;;;11.00;99.90;;;;;;5095916;28;19935;-76
2021/10/15 12:03:28;;;;;;;;;;;11.10;99.90;;;;;;5095867;28;20356;-76
2021/10/15 12:06:10;;;;;;;;;;;11.10;99.90;;;;;;5095356;28;20381;-76
2021/10/15 12:08:40;;;;;;;;;;;11.10;99.90;;;;;;5096023;28;19985;-76
2021/10/15 12:11:15;;;;;;;;;;;11.10;99.90;;;;;;5095861;28;20023;-76
2021/10/15 12:13:46;;;;;;;;;;;11.20;99.90;;;;;;5095749;28;19924;-75
2021/10/15 12:16:26;;;;;;;;;;;11.20;99.90;;;;;;5095389;28;19938;-76
2021/10/15 12:19:11;;;;;;;;;;;11.20;99.90;;;;;;5095327;28;19935;-76
2021/10/15 12:21:40;;;;;;;;;;;11.30;99.90;;;;;;5095533;28;20394;-76
2021/10/15 12:24:09;;;;;;;;;;;11.40;99.90;;;;;;5095577;28;19928;-76
2021/10/15 12:26:43;;;;;;;;;;;11.40;99.90;;;;;;5095331;28;19924;-76
2021/10/15 12:29:30;;;;;;;;;;;11.40;99.90;;;;;;5095734;28;20023;-76
2021/10/15 12:32:24;;;;;;;;;;;11.50;99.90;;;;;;5095429;28;20014;-76
2021/10/15 12:35:04;;;;;;;;;;;11.50;99.90;;;;;;5095683;28;19924;-75
2021/10/15 12:37:37;;;;;;;;;;;11.50;99.90;;;;;;5095216;28;19942;-76
2021/10/15 12:40:24;;;;;;;;;;;11.50;99.90;;;;;;5095327;28;19932;-76
2021/10/15 12:43:09;;;;;;;;;;;11.50;99.90;;;;;;5095332;28;19936;-76
2021/10/15 12:45:38;;;;;;;;;;;11.60;99.90;;;;;;5095627;28;20037;-75
2021/10/15 12:48:07;;;;;;;;;;;11.60;99.90;;;;;;5095404;28;20360;-75
2021/10/15 12:50:38;;;;;;;;;;;11.70;99.90;;;;;;5095370;28;19935;-75
2021/10/15 12:53:17;;;;;;;;;;;11.70;99.90;;;;;;5095525;28;19970;-75
2021/10/15 12:55:55;;;;;;;;;;;11.80;99.90;;;;;;5095182;28;19932;-75
2021/10/15 12:58:25;;;;;;;;;;;11.90;99.90;;;;;;5095142;28;20336;-75
2021/10/15 13:00:54;;;;;;;;;;;12.00;99.90;;;;;;5095079;28;19924;-75
2021/10/15 13:03:22;;;;;;;;;;;12.00;99.90;;;;;;5095079;28;19931;-75
2021/10/15 13:05:50;;;;;;;;;;;12.10;99.90;;;;;;5095002;28;20419;-76
2021/10/15 13:08:18;;;;;;;;;;;12.20;99.90;;;;;;5095099;28;19924;-76
2021/10/15 13:10:47;;;;;;;;;;;12.20;99.90;;;;;;5095075;28;19931;-75
2021/10/15 13:13:15;;;;;;;;;;;12.30;99.90;;;;;;5095115;28;20306;-76
2021/10/15 13:15:43;;;;;;;;;;;12.30;99.90;;;;;;5094977;28;20417;-76
2021/10/15 13:18:10;;;;;;;;;;;12.30;99.90;;;;;;5095044;28;19934;-75
2021/10/15 13:20:37;;;;;;;;;;;12.30;99.90;;;;;;5094796;28;20371;-75
2021/10/15 13:23:04;;;;;;;;;;;12.30;99.90;;;;;;5094356;28;19930;-75
2021/10/15 13:25:31;;;;;;;;;;;12.40;99.90;;;;;;5094921;28;20342;-75
2021/10/15 13:27:58;;;;;;;;;;;12.40;99.90;;;;;;5095149;28;19935;-76
2021/10/15 13:30:25;;;;;;;;;;;12.40;99.90;;;;;;5098834;28;20256;-75
2021/10/15 13:32:53;;;;;;;;;;;12.40;99.90;;;;;;5098761;28;19932;-76
2021/10/15 13:35:20;;;;;;;;;;;12.40;99.90;;;;;;5099058;28;19925;-76
2021/10/15 13:37:52;;;;;;;;;;;12.50;99.90;;;;;;5098883;28;19924;-76
2021/10/15 13:40:20;;;;;;;;;;;12.50;99.90;;;;;;5098755;28;19993;-76
2021/10/15 13:45:39;;;;;;;;;;;12.70;99.90;;;;;;5098607;28;19967;-76
2021/10/15 13:50:51;;;;;;;;;;;12.70;99.90;;;;;;5098753;28;19935;-77
2021/10/15 13:53:18;;;;;;;;;;;12.50;99.90;;;;;;5098460;28;19946;-76
2021/10/15 13:55:49;;;;;;;;;;;12.50;99.90;;;;;;5098521;28;20240;-76
2021/10/15 13:58:22;;;;;;;;;;;12.40;99.90;;;;;;5098781;28;19931;-76
2021/10/15 14:00:50;;;;;;;;;;;12.30;99.90;;;;;;5098337;28;20015;-76
2021/10/15 14:03:42;;;;;;;;;;;12.20;99.90;;;;;;5098355;28;19924;-76
2021/10/15 14:06:10;;;;;;;;;;;12.20;99.90;;;;;;5098236;28;19928;-75
2021/10/15 14:08:38;;;;;;;;;;;12.20;99.90;;;;;;5098226;28;19935;-76
2021/10/15 14:11:07;;;;;;;;;;;12.20;99.90;;;;;;5098218;28;20260;-77
2021/10/15 14:13:38;;;;;;;;;;;12.10;99.90;;;;;;5098045;28;19932;-77
2021/10/15 14:16:06;;;;;;;;;;;12.10;99.90;;;;;;5097953;28;19924;-75
2021/10/15 14:18:36;;;;;;;;;;;12.10;99.90;;;;;;5098095;28;19932;-75
2021/10/15 14:21:04;;;;;;;;;;;12.10;99.90;;;;;;5097863;28;19923;-76
2021/10/15 14:23:31;;;;;;;;;;;12.10;99.90;;;;;;5098051;28;19924;-76
2021/10/15 14:25:58;;;;;;;;;;;12.00;99.90;;;;;;5097993;28;19988;-75
2021/10/15 14:28:26;;;;;;;;;;;12.00;99.90;;;;;;5099429;28;19935;-75
2021/10/15 14:30:54;;;;;;;;;;;11.90;99.90;;;;;;5097667;28;19924;-76
2021/10/15 14:33:21;;;;;;;;;;;11.80;99.90;;;;;;5097791;28;19924;-80
2021/10/15 14:35:49;;;;;;;;;;;11.70;99.90;;;;;;5097592;28;19924;-76
2021/10/15 14:38:20;;;;;;;;;;;11.60;99.90;;;;;;5096707;28;19923;-77
2021/10/15 14:40:47;;;;;;;;;;;11.60;99.90;;;;;;5097407;28;19931;-76
2021/10/15 14:43:16;;;;;;;;;;;11.50;99.90;;;;;;5097632;28;19930;-76
2021/10/15 14:45:44;;;;;;;;;;;11.50;99.90;;;;;;5097476;28;19924;-76